Strona główna
METAR-TAF:

METAR-TAF

Lotnisko :

Port lotniczy Svalbard

Longyearbyen, Norwegia

Szerokość geograficzna: 78-15N, Długość geograficzna: 015-28E, wysokość: 2 m

Aktualna obserwacja pogody

Raport powstał 1 godzina i 11 minut temu, godzina 08:50 UTC
Wiatr 11 kt od wschodnio-południowy wschód
Temperatura -5°C
Wilgotność 79%
Ciśnienie 1021 hPa
Widzialność 10 km lub więcej
Przerywane chmury na wysokości 2000 ft

METAR: ENSB 200850Z 11011KT 9999 BKN020 M05/M08 Q1021 TEMPO VRB05KT RMK WS RWY10 RMK WIND 1400FT 22014KT

czas: 11:01 (10:01 UTC)

Prognoza

Prognoza ważna od 20 godzina 08 UTC do 21 godzina 06 UTC
Wiatr 8 kt od wschodnio-południowy wschód
Widzialność 10 km lub więcej
Mało chmury na wysokości 1500 ft
Przerywane chmury na wysokości 2500 ft

TAF: ENSB 2008/2106 12008KT 9999 FEW015 BKN025

Obserwacja i prognoza pogody dla ponad 4000 lotnisk (raport METAR i TAF).

Dostępne stacje oznaczono żółtymi i czerwonymi punktami na mapie.

Najedź kursorem aby zobaczyć nazwę stacji.

Kliknij aby zobaczyć obserwacje i prognozy pogody.

Aby zmienić mapę: kliknij na zielony przycisk z czarnym krzyżykiem, aby powiększyć; na zielony przycisk z myślnikiem, aby pomniejszyć; na zielone strzałki, aby przejść do map sąsiednich.


METAR-TAF: